sensor_id;sensor_type;location;lat;lon;timestamp;P1;P2;P0
60645;PMS5003;46462;32.608;-117.032;2023-08-20T00:00:43;7;7;
60645;PMS5003;46462;32.608;-117.032;2023-08-20T00:03:13;7;7;
60645;PMS5003;46462;32.608;-117.032;2023-08-20T00:05:44;6;6;
60645;PMS5003;46462;32.608;-117.032;2023-08-20T00:08:14;9;9;
60645;PMS5003;46462;32.608;-117.032;2023-08-20T00:10:45;8;7;
60645;PMS5003;46462;32.608;-117.032;2023-08-20T00:13:16;8;7;
60645;PMS5003;46462;32.608;-117.032;2023-08-20T00:15:46;8;8;
60645;PMS5003;46462;32.608;-117.032;2023-08-20T00:18:17;8;8;
60645;PMS5003;46462;32.608;-117.032;2023-08-20T00:20:47;6;6;
60645;PMS5003;46462;32.608;-117.032;2023-08-20T00:23:18;6;6;
60645;PMS5003;46462;32.608;-117.032;2023-08-20T00:25:49;9;8;
60645;PMS5003;46462;32.608;-117.032;2023-08-20T00:28:19;7;7;
60645;PMS5003;46462;32.608;-117.032;2023-08-20T00:30:49;8;7;
60645;PMS5003;46462;32.608;-117.032;2023-08-20T00:33:20;6;6;
60645;PMS5003;46462;32.608;-117.032;2023-08-20T00:35:51;8;8;
60645;PMS5003;46462;32.608;-117.032;2023-08-20T00:38:21;8;8;
60645;PMS5003;46462;32.608;-117.032;2023-08-20T00:40:52;10;9;
60645;PMS5003;46462;32.608;-117.032;2023-08-20T00:43:23;6;6;
60645;PMS5003;46462;32.608;-117.032;2023-08-20T00:45:53;7;6;
60645;PMS5003;46462;32.608;-117.032;2023-08-20T00:48:24;8;8;
60645;PMS5003;46462;32.608;-117.032;2023-08-20T00:50:54;6;6;
60645;PMS5003;46462;32.608;-117.032;2023-08-20T00:53:25;8;8;
60645;PMS5003;46462;32.608;-117.032;2023-08-20T00:55:55;8;8;
60645;PMS5003;46462;32.608;-117.032;2023-08-20T00:58:26;6;6;
60645;PMS5003;46462;32.608;-117.032;2023-08-20T01:00:57;6;6;
60645;PMS5003;46462;32.608;-117.032;2023-08-20T01:03:27;6;6;
60645;PMS5003;46462;32.608;-117.032;2023-08-20T01:05:58;8;7;
60645;PMS5003;46462;32.608;-117.032;2023-08-20T01:08:29;7;7;
60645;PMS5003;46462;32.608;-117.032;2023-08-20T01:11:01;7;7;
60645;PMS5003;46462;32.608;-117.032;2023-08-20T01:13:30;8;8;
60645;PMS5003;46462;32.608;-117.032;2023-08-20T01:16:00;7;7;
60645;PMS5003;46462;32.608;-117.032;2023-08-20T01:18:31;6;6;
60645;PMS5003;46462;32.608;-117.032;2023-08-20T01:21:02;7;7;
60645;PMS5003;46462;32.608;-117.032;2023-08-20T01:26:07;6;6;
60645;PMS5003;46462;32.608;-117.032;2023-08-20T01:28:33;8;8;
60645;PMS5003;46462;32.608;-117.032;2023-08-20T01:31:04;8;8;
60645;PMS5003;46462;32.608;-117.032;2023-08-20T01:33:34;8;7;
60645;PMS5003;46462;32.608;-117.032;2023-08-20T01:36:06;8;7;
60645;PMS5003;46462;32.608;-117.032;2023-08-20T01:38:35;7;7;
60645;PMS5003;46462;32.608;-117.032;2023-08-20T01:41:06;7;7;
60645;PMS5003;46462;32.608;-117.032;2023-08-20T01:43:37;8;8;
60645;PMS5003;46462;32.608;-117.032;2023-08-20T01:46:07;6;6;
60645;PMS5003;46462;32.608;-117.032;2023-08-20T01:48:38;8;8;
60645;PMS5003;46462;32.608;-117.032;2023-08-20T01:51:08;7;7;
60645;PMS5003;46462;32.608;-117.032;2023-08-20T01:53:39;6;6;
60645;PMS5003;46462;32.608;-117.032;2023-08-20T01:56:11;6;6;
60645;PMS5003;46462;32.608;-117.032;2023-08-20T01:58:40;7;7;
60645;PMS5003;46462;32.608;-117.032;2023-08-20T02:01:11;8;8;
60645;PMS5003;46462;32.608;-117.032;2023-08-20T02:03:41;8;8;
60645;PMS5003;46462;32.608;-117.032;2023-08-20T02:06:12;6;6;
60645;PMS5003;46462;32.608;-117.032;2023-08-20T02:08:42;6;6;
60645;PMS5003;46462;32.608;-117.032;2023-08-20T02:11:13;6;6;
60645;PMS5003;46462;32.608;-117.032;2023-08-20T02:13:43;10;10;
60645;PMS5003;46462;32.608;-117.032;2023-08-20T02:16:14;7;6;
60645;PMS5003;46462;32.608;-117.032;2023-08-20T02:18:45;6;6;
60645;PMS5003;46462;32.608;-117.032;2023-08-20T02:21:15;7;7;
60645;PMS5003;46462;32.608;-117.032;2023-08-20T02:23:46;7;7;
60645;PMS5003;46462;32.608;-117.032;2023-08-20T02:26:16;5;5;
60645;PMS5003;46462;32.608;-117.032;2023-08-20T02:28:47;7;7;
60645;PMS5003;46462;32.608;-117.032;2023-08-20T02:31:18;9;9;
60645;PMS5003;46462;32.608;-117.032;2023-08-20T02:33:48;6;6;
60645;PMS5003;46462;32.608;-117.032;2023-08-20T02:36:19;8;7;
60645;PMS5003;46462;32.608;-117.032;2023-08-20T02:38:49;9;8;
60645;PMS5003;46462;32.608;-117.032;2023-08-20T02:41:20;6;6;
60645;PMS5003;46462;32.608;-117.032;2023-08-20T02:43:51;9;8;
60645;PMS5003;46462;32.608;-117.032;2023-08-20T02:46:21;8;7;
60645;PMS5003;46462;32.608;-117.032;2023-08-20T02:48:52;9;9;
60645;PMS5003;46462;32.608;-117.032;2023-08-20T02:51:22;8;8;
60645;PMS5003;46462;32.608;-117.032;2023-08-20T02:53:53;10;9;
60645;PMS5003;46462;32.608;-117.032;2023-08-20T02:56:23;8;8;
60645;PMS5003;46462;32.608;-117.032;2023-08-20T02:58:54;8;8;
60645;PMS5003;46462;32.608;-117.032;2023-08-20T03:01:25;9;9;
60645;PMS5003;46462;32.608;-117.032;2023-08-20T03:03:55;7;7;
60645;PMS5003;46462;32.608;-117.032;2023-08-20T03:06:26;8;8;
60645;PMS5003;46462;32.608;-117.032;2023-08-20T03:08:56;9;8;
60645;PMS5003;46462;32.608;-117.032;2023-08-20T03:11:27;10;10;
60645;PMS5003;46462;32.608;-117.032;2023-08-20T03:13:57;6;6;
60645;PMS5003;46462;32.608;-117.032;2023-08-20T03:16:28;9;9;
60645;PMS5003;46462;32.608;-117.032;2023-08-20T03:18:59;10;9;
60645;PMS5003;46462;32.608;-117.032;2023-08-20T03:21:29;11;8;
60645;PMS5003;46462;32.608;-117.032;2023-08-20T03:24:00;10;10;
60645;PMS5003;46462;32.608;-117.032;2023-08-20T03:26:30;9;8;
60645;PMS5003;46462;32.608;-117.032;2023-08-20T03:29:01;7;7;
60645;PMS5003;46462;32.608;-117.032;2023-08-20T03:31:31;7;6;
60645;PMS5003;46462;32.608;-117.032;2023-08-20T03:34:02;5;5;
60645;PMS5003;46462;32.608;-117.032;2023-08-20T03:36:33;8;8;
60645;PMS5003;46462;32.608;-117.032;2023-08-20T03:39:03;9;9;
60645;PMS5003;46462;32.608;-117.032;2023-08-20T03:41:34;8;8;
60645;PMS5003;46462;32.608;-117.032;2023-08-20T03:44:05;8;7;
60645;PMS5003;46462;32.608;-117.032;2023-08-20T03:46:35;7;7;
60645;PMS5003;46462;32.608;-117.032;2023-08-20T03:49:05;8;8;
60645;PMS5003;46462;32.608;-117.032;2023-08-20T03:51:36;7;7;
60645;PMS5003;46462;32.608;-117.032;2023-08-20T03:54:07;8;7;
60645;PMS5003;46462;32.608;-117.032;2023-08-20T03:56:37;7;7;
60645;PMS5003;46462;32.608;-117.032;2023-08-20T03:59:08;8;8;
60645;PMS5003;46462;32.608;-117.032;2023-08-20T04:01:38;8;8;
60645;PMS5003;46462;32.608;-117.032;2023-08-20T04:04:09;8;8;
60645;PMS5003;46462;32.608;-117.032;2023-08-20T04:06:40;8;8;
60645;PMS5003;46462;32.608;-117.032;2023-08-20T04:09:10;8;8;
60645;PMS5003;46462;32.608;-117.032;2023-08-20T04:11:41;7;6;
60645;PMS5003;46462;32.608;-117.032;2023-08-20T04:14:11;7;7;
60645;PMS5003;46462;32.608;-117.032;2023-08-20T04:16:42;8;8;
60645;PMS5003;46462;32.608;-117.032;2023-08-20T04:19:13;9;9;
60645;PMS5003;46462;32.608;-117.032;2023-08-20T04:21:43;8;8;
60645;PMS5003;46462;32.608;-117.032;2023-08-20T04:24:13;8;8;
60645;PMS5003;46462;32.608;-117.032;2023-08-20T04:26:44;8;8;
60645;PMS5003;46462;32.608;-117.032;2023-08-20T04:29:15;8;8;
60645;PMS5003;46462;32.608;-117.032;2023-08-20T04:31:45;8;8;
60645;PMS5003;46462;32.608;-117.032;2023-08-20T04:34:15;8;8;
60645;PMS5003;46462;32.608;-117.032;2023-08-20T04:36:46;8;8;
60645;PMS5003;46462;32.608;-117.032;2023-08-20T04:39:17;8;7;
60645;PMS5003;46462;32.608;-117.032;2023-08-20T04:41:47;7;7;
60645;PMS5003;46462;32.608;-117.032;2023-08-20T04:44:18;7;7;
60645;PMS5003;46462;32.608;-117.032;2023-08-20T04:46:48;8;8;
60645;PMS5003;46462;32.608;-117.032;2023-08-20T04:49:19;9;9;
60645;PMS5003;46462;32.608;-117.032;2023-08-20T04:51:49;8;8;
60645;PMS5003;46462;32.608;-117.032;2023-08-20T04:54:20;9;9;
60645;PMS5003;46462;32.608;-117.032;2023-08-20T04:56:51;7;7;
60645;PMS5003;46462;32.608;-117.032;2023-08-20T04:59:21;9;9;
60645;PMS5003;46462;32.608;-117.032;2023-08-20T05:01:52;7;7;
60645;PMS5003;46462;32.608;-117.032;2023-08-20T05:04:23;7;7;
60645;PMS5003;46462;32.608;-117.032;2023-08-20T05:06:53;8;8;
60645;PMS5003;46462;32.608;-117.032;2023-08-20T05:09:24;7;7;
60645;PMS5003;46462;32.608;-117.032;2023-08-20T05:11:54;8;7;
60645;PMS5003;46462;32.608;-117.032;2023-08-20T05:14:25;7;7;
60645;PMS5003;46462;32.608;-117.032;2023-08-20T05:16:55;8;8;
60645;PMS5003;46462;32.608;-117.032;2023-08-20T05:19:26;9;8;
60645;PMS5003;46462;32.608;-117.032;2023-08-20T05:21:57;8;8;
60645;PMS5003;46462;32.608;-117.032;2023-08-20T05:24:27;10;10;
60645;PMS5003;46462;32.608;-117.032;2023-08-20T05:29:29;8;8;
60645;PMS5003;46462;32.608;-117.032;2023-08-20T05:31:59;8;8;
60645;PMS5003;46462;32.608;-117.032;2023-08-20T05:34:30;8;8;
60645;PMS5003;46462;32.608;-117.032;2023-08-20T05:37:00;8;8;
60645;PMS5003;46462;32.608;-117.032;2023-08-20T05:39:36;8;7;
60645;PMS5003;46462;32.608;-117.032;2023-08-20T05:42:02;6;6;
60645;PMS5003;46462;32.608;-117.032;2023-08-20T05:44:32;10;10;
60645;PMS5003;46462;32.608;-117.032;2023-08-20T05:47:03;8;8;
60645;PMS5003;46462;32.608;-117.032;2023-08-20T05:49:33;9;8;
60645;PMS5003;46462;32.608;-117.032;2023-08-20T05:52:04;8;8;
60645;PMS5003;46462;32.608;-117.032;2023-08-20T05:54:34;10;10;
60645;PMS5003;46462;32.608;-117.032;2023-08-20T05:57:05;8;7;
60645;PMS5003;46462;32.608;-117.032;2023-08-20T05:59:35;7;7;
60645;PMS5003;46462;32.608;-117.032;2023-08-20T06:02:06;8;7;
60645;PMS5003;46462;32.608;-117.032;2023-08-20T06:04:37;8;8;
60645;PMS5003;46462;32.608;-117.032;2023-08-20T06:07:07;8;7;
60645;PMS5003;46462;32.608;-117.032;2023-08-20T06:09:38;7;7;
60645;PMS5003;46462;32.608;-117.032;2023-08-20T06:12:09;9;9;
60645;PMS5003;46462;32.608;-117.032;2023-08-20T06:14:39;8;7;
60645;PMS5003;46462;32.608;-117.032;2023-08-20T06:17:09;8;8;
60645;PMS5003;46462;32.608;-117.032;2023-08-20T06:19:40;9;7;
60645;PMS5003;46462;32.608;-117.032;2023-08-20T06:22:10;7;7;
60645;PMS5003;46462;32.608;-117.032;2023-08-20T06:24:41;7;7;
60645;PMS5003;46462;32.608;-117.032;2023-08-20T06:27:11;9;9;
60645;PMS5003;46462;32.608;-117.032;2023-08-20T06:29:42;9;9;
60645;PMS5003;46462;32.608;-117.032;2023-08-20T06:32:13;9;8;
60645;PMS5003;46462;32.608;-117.032;2023-08-20T06:34:43;10;8;
60645;PMS5003;46462;32.608;-117.032;2023-08-20T06:37:14;10;9;
60645;PMS5003;46462;32.608;-117.032;2023-08-20T06:39:44;8;8;
60645;PMS5003;46462;32.608;-117.032;2023-08-20T06:42:15;8;8;
60645;PMS5003;46462;32.608;-117.032;2023-08-20T06:44:46;8;8;
60645;PMS5003;46462;32.608;-117.032;2023-08-20T06:47:16;6;6;
60645;PMS5003;46462;32.608;-117.032;2023-08-20T06:49:47;8;8;
60645;PMS5003;46462;32.608;-117.032;2023-08-20T06:52:17;6;6;
60645;PMS5003;46462;32.608;-117.032;2023-08-20T06:54:48;8;8;
60645;PMS5003;46462;32.608;-117.032;2023-08-20T06:57:19;8;7;
60645;PMS5003;46462;32.608;-117.032;2023-08-20T06:59:49;7;7;
60645;PMS5003;46462;32.608;-117.032;2023-08-20T07:02:20;7;7;
60645;PMS5003;46462;32.608;-117.032;2023-08-20T07:04:50;8;8;
60645;PMS5003;46462;32.608;-117.032;2023-08-20T07:07:21;8;8;
60645;PMS5003;46462;32.608;-117.032;2023-08-20T07:09:52;8;8;
60645;PMS5003;46462;32.608;-117.032;2023-08-20T07:12:22;7;7;
60645;PMS5003;46462;32.608;-117.032;2023-08-20T07:14:53;7;7;
60645;PMS5003;46462;32.608;-117.032;2023-08-20T07:17:23;8;8;
60645;PMS5003;46462;32.608;-117.032;2023-08-20T07:19:54;7;7;
60645;PMS5003;46462;32.608;-117.032;2023-08-20T07:22:25;7;7;
60645;PMS5003;46462;32.608;-117.032;2023-08-20T07:24:55;9;8;
60645;PMS5003;46462;32.608;-117.032;2023-08-20T07:27:26;7;7;
60645;PMS5003;46462;32.608;-117.032;2023-08-20T07:29:57;8;7;
60645;PMS5003;46462;32.608;-117.032;2023-08-20T07:32:27;7;7;
60645;PMS5003;46462;32.608;-117.032;2023-08-20T07:34:58;8;8;
60645;PMS5003;46462;32.608;-117.032;2023-08-20T07:37:28;5;5;
60645;PMS5003;46462;32.608;-117.032;2023-08-20T07:39:59;7;7;
60645;PMS5003;46462;32.608;-117.032;2023-08-20T07:42:29;7;7;
60645;PMS5003;46462;32.608;-117.032;2023-08-20T07:45:00;6;6;
60645;PMS5003;46462;32.608;-117.032;2023-08-20T07:47:30;8;8;
60645;PMS5003;46462;32.608;-117.032;2023-08-20T07:50:01;8;8;
60645;PMS5003;46462;32.608;-117.032;2023-08-20T07:52:32;8;8;
60645;PMS5003;46462;32.608;-117.032;2023-08-20T07:55:08;7;7;
60645;PMS5003;46462;32.608;-117.032;2023-08-20T07:57:38;7;7;
60645;PMS5003;46462;32.608;-117.032;2023-08-20T08:00:09;7;7;
60645;PMS5003;46462;32.608;-117.032;2023-08-20T08:02:39;7;7;
60645;PMS5003;46462;32.608;-117.032;2023-08-20T08:05:10;10;8;
60645;PMS5003;46462;32.608;-117.032;2023-08-20T08:07:40;7;7;
60645;PMS5003;46462;32.608;-117.032;2023-08-20T08:10:11;8;8;
60645;PMS5003;46462;32.608;-117.032;2023-08-20T08:12:41;8;8;
60645;PMS5003;46462;32.608;-117.032;2023-08-20T08:15:12;8;8;
60645;PMS5003;46462;32.608;-117.032;2023-08-20T08:17:43;6;6;
60645;PMS5003;46462;32.608;-117.032;2023-08-20T08:20:13;6;6;
60645;PMS5003;46462;32.608;-117.032;2023-08-20T08:22:44;8;8;
60645;PMS5003;46462;32.608;-117.032;2023-08-20T08:25:14;6;6;
60645;PMS5003;46462;32.608;-117.032;2023-08-20T08:27:45;7;7;
60645;PMS5003;46462;32.608;-117.032;2023-08-20T08:30:16;6;6;
60645;PMS5003;46462;32.608;-117.032;2023-08-20T08:32:46;8;8;
60645;PMS5003;46462;32.608;-117.032;2023-08-20T08:35:17;5;5;
60645;PMS5003;46462;32.608;-117.032;2023-08-20T08:37:47;7;7;
60645;PMS5003;46462;32.608;-117.032;2023-08-20T08:40:18;8;8;
60645;PMS5003;46462;32.608;-117.032;2023-08-20T08:42:49;7;7;
60645;PMS5003;46462;32.608;-117.032;2023-08-20T08:45:19;7;7;
60645;PMS5003;46462;32.608;-117.032;2023-08-20T08:47:50;8;8;
60645;PMS5003;46462;32.608;-117.032;2023-08-20T08:50:20;8;7;
60645;PMS5003;46462;32.608;-117.032;2023-08-20T08:52:51;7;7;
60645;PMS5003;46462;32.608;-117.032;2023-08-20T08:55:21;6;6;
60645;PMS5003;46462;32.608;-117.032;2023-08-20T08:57:51;7;7;
60645;PMS5003;46462;32.608;-117.032;2023-08-20T09:00:22;8;7;
60645;PMS5003;46462;32.608;-117.032;2023-08-20T09:02:53;5;5;
60645;PMS5003;46462;32.608;-117.032;2023-08-20T09:05:23;5;5;
60645;PMS5003;46462;32.608;-117.032;2023-08-20T09:07:55;8;8;
60645;PMS5003;46462;32.608;-117.032;2023-08-20T09:10:25;8;8;
60645;PMS5003;46462;32.608;-117.032;2023-08-20T09:12:55;7;7;
60645;PMS5003;46462;32.608;-117.032;2023-08-20T09:15:31;9;8;
60645;PMS5003;46462;32.608;-117.032;2023-08-20T09:17:56;8;8;
60645;PMS5003;46462;32.608;-117.032;2023-08-20T09:22:57;7;7;
60645;PMS5003;46462;32.608;-117.032;2023-08-20T09:25:28;7;7;
60645;PMS5003;46462;32.608;-117.032;2023-08-20T09:28:01;7;7;
60645;PMS5003;46462;32.608;-117.032;2023-08-20T09:30:29;10;10;
60645;PMS5003;46462;32.608;-117.032;2023-08-20T09:33:03;8;8;
60645;PMS5003;46462;32.608;-117.032;2023-08-20T09:35:30;8;8;
60645;PMS5003;46462;32.608;-117.032;2023-08-20T09:38:02;7;7;
60645;PMS5003;46462;32.608;-117.032;2023-08-20T09:40:32;5;5;
60645;PMS5003;46462;32.608;-117.032;2023-08-20T09:43:02;7;7;
60645;PMS5003;46462;32.608;-117.032;2023-08-20T09:45:33;6;6;
60645;PMS5003;46462;32.608;-117.032;2023-08-20T09:48:04;7;7;
60645;PMS5003;46462;32.608;-117.032;2023-08-20T09:50:34;7;7;
60645;PMS5003;46462;32.608;-117.032;2023-08-20T09:53:06;8;7;
60645;PMS5003;46462;32.608;-117.032;2023-08-20T09:55:35;8;8;
60645;PMS5003;46462;32.608;-117.032;2023-08-20T09:58:05;8;8;
60645;PMS5003;46462;32.608;-117.032;2023-08-20T10:00:36;8;7;
60645;PMS5003;46462;32.608;-117.032;2023-08-20T10:03:06;7;6;
60645;PMS5003;46462;32.608;-117.032;2023-08-20T10:05:37;6;6;
60645;PMS5003;46462;32.608;-117.032;2023-08-20T10:08:08;7;7;
60645;PMS5003;46462;32.608;-117.032;2023-08-20T10:10:38;8;8;
60645;PMS5003;46462;32.608;-117.032;2023-08-20T10:13:09;5;5;
60645;PMS5003;46462;32.608;-117.032;2023-08-20T10:15:40;6;6;
60645;PMS5003;46462;32.608;-117.032;2023-08-20T10:18:10;6;6;
60645;PMS5003;46462;32.608;-117.032;2023-08-20T10:20:41;7;7;
60645;PMS5003;46462;32.608;-117.032;2023-08-20T10:23:11;7;6;
60645;PMS5003;46462;32.608;-117.032;2023-08-20T10:25:42;6;6;
60645;PMS5003;46462;32.608;-117.032;2023-08-20T10:28:13;6;6;
60645;PMS5003;46462;32.608;-117.032;2023-08-20T10:33:14;6;6;
60645;PMS5003;46462;32.608;-117.032;2023-08-20T10:35:47;6;6;
60645;PMS5003;46462;32.608;-117.032;2023-08-20T10:38:15;6;6;
60645;PMS5003;46462;32.608;-117.032;2023-08-20T10:40:50;6;6;
60645;PMS5003;46462;32.608;-117.032;2023-08-20T10:45:47;6;6;
60645;PMS5003;46462;32.608;-117.032;2023-08-20T10:48:17;5;5;
60645;PMS5003;46462;32.608;-117.032;2023-08-20T10:50:48;5;5;
60645;PMS5003;46462;32.608;-117.032;2023-08-20T10:53:21;6;6;
60645;PMS5003;46462;32.608;-117.032;2023-08-20T10:55:49;5;5;
60645;PMS5003;46462;32.608;-117.032;2023-08-20T10:58:23;7;7;
60645;PMS5003;46462;32.608;-117.032;2023-08-20T11:03:21;6;6;
60645;PMS5003;46462;32.608;-117.032;2023-08-20T11:05:51;4;4;
60645;PMS5003;46462;32.608;-117.032;2023-08-20T11:08:22;7;7;
60645;PMS5003;46462;32.608;-117.032;2023-08-20T11:10:52;6;6;
60645;PMS5003;46462;32.608;-117.032;2023-08-20T11:13:23;6;6;
60645;PMS5003;46462;32.608;-117.032;2023-08-20T11:15:54;6;5;
60645;PMS5003;46462;32.608;-117.032;2023-08-20T11:18:24;4;4;
60645;PMS5003;46462;32.608;-117.032;2023-08-20T11:20:55;5;5;
60645;PMS5003;46462;32.608;-117.032;2023-08-20T11:23:25;6;6;
60645;PMS5003;46462;32.608;-117.032;2023-08-20T11:25:56;4;4;
60645;PMS5003;46462;32.608;-117.032;2023-08-20T11:28:27;6;6;
60645;PMS5003;46462;32.608;-117.032;2023-08-20T11:30:57;6;6;
60645;PMS5003;46462;32.608;-117.032;2023-08-20T11:33:28;4;4;
60645;PMS5003;46462;32.608;-117.032;2023-08-20T11:35:58;6;5;
60645;PMS5003;46462;32.608;-117.032;2023-08-20T11:38:29;5;5;
60645;PMS5003;46462;32.608;-117.032;2023-08-20T11:41:00;5;5;
60645;PMS5003;46462;32.608;-117.032;2023-08-20T11:43:30;7;6;
60645;PMS5003;46462;32.608;-117.032;2023-08-20T11:46:01;4;4;
60645;PMS5003;46462;32.608;-117.032;2023-08-20T11:48:31;6;6;
60645;PMS5003;46462;32.608;-117.032;2023-08-20T11:51:02;4;4;
60645;PMS5003;46462;32.608;-117.032;2023-08-20T11:53:32;5;5;
60645;PMS5003;46462;32.608;-117.032;2023-08-20T11:56:03;6;6;
60645;PMS5003;46462;32.608;-117.032;2023-08-20T11:58:34;5;5;
60645;PMS5003;46462;32.608;-117.032;2023-08-20T12:01:07;4;4;
60645;PMS5003;46462;32.608;-117.032;2023-08-20T12:03:37;5;5;
60645;PMS5003;46462;32.608;-117.032;2023-08-20T12:08:37;6;5;
60645;PMS5003;46462;32.608;-117.032;2023-08-20T12:11:07;6;6;
60645;PMS5003;46462;32.608;-117.032;2023-08-20T12:13:37;2;2;
60645;PMS5003;46462;32.608;-117.032;2023-08-20T12:16:08;6;6;
60645;PMS5003;46462;32.608;-117.032;2023-08-20T12:18:38;5;5;
60645;PMS5003;46462;32.608;-117.032;2023-08-20T12:21:09;7;6;
60645;PMS5003;46462;32.608;-117.032;2023-08-20T12:23:39;3;3;
60645;PMS5003;46462;32.608;-117.032;2023-08-20T12:26:10;4;4;
60645;PMS5003;46462;32.608;-117.032;2023-08-20T12:28:40;6;5;
60645;PMS5003;46462;32.608;-117.032;2023-08-20T12:31:11;5;5;
60645;PMS5003;46462;32.608;-117.032;2023-08-20T12:33:42;4;4;
60645;PMS5003;46462;32.608;-117.032;2023-08-20T12:36:12;4;4;
60645;PMS5003;46462;32.608;-117.032;2023-08-20T12:38:43;5;5;
60645;PMS5003;46462;32.608;-117.032;2023-08-20T12:41:13;5;5;
60645;PMS5003;46462;32.608;-117.032;2023-08-20T12:43:44;5;5;
60645;PMS5003;46462;32.608;-117.032;2023-08-20T12:46:15;5;5;
60645;PMS5003;46462;32.608;-117.032;2023-08-20T12:48:45;5;5;
60645;PMS5003;46462;32.608;-117.032;2023-08-20T12:51:16;4;4;
60645;PMS5003;46462;32.608;-117.032;2023-08-20T12:53:47;4;4;
60645;PMS5003;46462;32.608;-117.032;2023-08-20T12:56:17;6;5;
60645;PMS5003;46462;32.608;-117.032;2023-08-20T12:58:47;4;4;
60645;PMS5003;46462;32.608;-117.032;2023-08-20T13:01:18;4;4;
60645;PMS5003;46462;32.608;-117.032;2023-08-20T13:03:49;7;7;
60645;PMS5003;46462;32.608;-117.032;2023-08-20T13:06:20;5;4;
60645;PMS5003;46462;32.608;-117.032;2023-08-20T13:08:50;5;5;
60645;PMS5003;46462;32.608;-117.032;2023-08-20T13:11:20;5;5;
60645;PMS5003;46462;32.608;-117.032;2023-08-20T13:13:51;4;3;
60645;PMS5003;46462;32.608;-117.032;2023-08-20T13:16:22;5;5;
60645;PMS5003;46462;32.608;-117.032;2023-08-20T13:18:52;4;4;
60645;PMS5003;46462;32.608;-117.032;2023-08-20T13:21:23;4;4;
60645;PMS5003;46462;32.608;-117.032;2023-08-20T13:23:53;4;4;
60645;PMS5003;46462;32.608;-117.032;2023-08-20T13:26:24;4;4;
60645;PMS5003;46462;32.608;-117.032;2023-08-20T13:28:54;5;4;
60645;PMS5003;46462;32.608;-117.032;2023-08-20T13:31:25;5;5;
60645;PMS5003;46462;32.608;-117.032;2023-08-20T13:33:56;6;5;
60645;PMS5003;46462;32.608;-117.032;2023-08-20T13:36:26;4;4;
60645;PMS5003;46462;32.608;-117.032;2023-08-20T13:38:57;4;4;
60645;PMS5003;46462;32.608;-117.032;2023-08-20T13:41:27;4;4;
60645;PMS5003;46462;32.608;-117.032;2023-08-20T13:43:58;5;5;
60645;PMS5003;46462;32.608;-117.032;2023-08-20T13:46:29;5;4;
60645;PMS5003;46462;32.608;-117.032;2023-08-20T13:48:59;4;4;
60645;PMS5003;46462;32.608;-117.032;2023-08-20T13:51:30;2;2;
60645;PMS5003;46462;32.608;-117.032;2023-08-20T13:54:00;3;3;
60645;PMS5003;46462;32.608;-117.032;2023-08-20T13:56:31;4;4;
60645;PMS5003;46462;32.608;-117.032;2023-08-20T13:59:02;5;5;
60645;PMS5003;46462;32.608;-117.032;2023-08-20T14:01:32;4;4;
60645;PMS5003;46462;32.608;-117.032;2023-08-20T14:04:03;4;4;
60645;PMS5003;46462;32.608;-117.032;2023-08-20T14:06:33;6;5;
60645;PMS5003;46462;32.608;-117.032;2023-08-20T14:09:04;5;5;
60645;PMS5003;46462;32.608;-117.032;2023-08-20T14:11:35;5;4;
60645;PMS5003;46462;32.608;-117.032;2023-08-20T14:14:05;5;5;
60645;PMS5003;46462;32.608;-117.032;2023-08-20T14:16:36;3;3;
60645;PMS5003;46462;32.608;-117.032;2023-08-20T14:19:06;4;4;
60645;PMS5003;46462;32.608;-117.032;2023-08-20T14:21:37;5;5;
60645;PMS5003;46462;32.608;-117.032;2023-08-20T14:24:08;5;4;
60645;PMS5003;46462;32.608;-117.032;2023-08-20T14:26:38;8;7;
60645;PMS5003;46462;32.608;-117.032;2023-08-20T14:29:09;4;4;
60645;PMS5003;46462;32.608;-117.032;2023-08-20T14:31:39;3;3;
60645;PMS5003;46462;32.608;-117.032;2023-08-20T14:34:10;5;5;
60645;PMS5003;46462;32.608;-117.032;2023-08-20T14:36:40;6;5;
60645;PMS5003;46462;32.608;-117.032;2023-08-20T14:39:11;3;3;
60645;PMS5003;46462;32.608;-117.032;2023-08-20T14:41:41;4;4;
60645;PMS5003;46462;32.608;-117.032;2023-08-20T14:44:12;5;5;
60645;PMS5003;46462;32.608;-117.032;2023-08-20T14:46:43;3;3;
60645;PMS5003;46462;32.608;-117.032;2023-08-20T14:49:13;5;5;
60645;PMS5003;46462;32.608;-117.032;2023-08-20T14:51:44;5;4;
60645;PMS5003;46462;32.608;-117.032;2023-08-20T14:54:14;4;4;
60645;PMS5003;46462;32.608;-117.032;2023-08-20T14:56:45;5;5;
60645;PMS5003;46462;32.608;-117.032;2023-08-20T14:59:16;4;4;
60645;PMS5003;46462;32.608;-117.032;2023-08-20T15:01:46;3;3;
60645;PMS5003;46462;32.608;-117.032;2023-08-20T15:04:17;3;3;
60645;PMS5003;46462;32.608;-117.032;2023-08-20T15:06:47;4;4;
60645;PMS5003;46462;32.608;-117.032;2023-08-20T15:09:18;5;5;
60645;PMS5003;46462;32.608;-117.032;2023-08-20T15:11:48;5;4;
60645;PMS5003;46462;32.608;-117.032;2023-08-20T15:14:19;4;4;
60645;PMS5003;46462;32.608;-117.032;2023-08-20T15:16:50;6;6;
60645;PMS5003;46462;32.608;-117.032;2023-08-20T15:19:20;4;4;
60645;PMS5003;46462;32.608;-117.032;2023-08-20T15:21:51;4;4;
60645;PMS5003;46462;32.608;-117.032;2023-08-20T15:24:22;4;4;
60645;PMS5003;46462;32.608;-117.032;2023-08-20T15:26:52;4;4;
60645;PMS5003;46462;32.608;-117.032;2023-08-20T15:29:23;4;4;
60645;PMS5003;46462;32.608;-117.032;2023-08-20T15:31:53;3;3;
60645;PMS5003;46462;32.608;-117.032;2023-08-20T15:34:24;3;3;
60645;PMS5003;46462;32.608;-117.032;2023-08-20T15:36:55;3;3;
60645;PMS5003;46462;32.608;-117.032;2023-08-20T15:39:25;4;3;
60645;PMS5003;46462;32.608;-117.032;2023-08-20T15:41:55;3;3;
60645;PMS5003;46462;32.608;-117.032;2023-08-20T15:44:26;4;4;
60645;PMS5003;46462;32.608;-117.032;2023-08-20T15:46:57;3;3;
60645;PMS5003;46462;32.608;-117.032;2023-08-20T15:49:27;3;3;
60645;PMS5003;46462;32.608;-117.032;2023-08-20T15:51:58;3;3;
60645;PMS5003;46462;32.608;-117.032;2023-08-20T15:54:28;5;5;
60645;PMS5003;46462;32.608;-117.032;2023-08-20T15:56:59;3;3;
60645;PMS5003;46462;32.608;-117.032;2023-08-20T15:59:30;3;3;
60645;PMS5003;46462;32.608;-117.032;2023-08-20T16:02:00;3;3;
60645;PMS5003;46462;32.608;-117.032;2023-08-20T16:04:31;4;4;
60645;PMS5003;46462;32.608;-117.032;2023-08-20T16:07:02;4;4;
60645;PMS5003;46462;32.608;-117.032;2023-08-20T16:09:33;3;2;
60645;PMS5003;46462;32.608;-117.032;2023-08-20T16:12:03;4;4;
60645;PMS5003;46462;32.608;-117.032;2023-08-20T16:14:33;4;4;
60645;PMS5003;46462;32.608;-117.032;2023-08-20T16:17:04;4;4;
60645;PMS5003;46462;32.608;-117.032;2023-08-20T16:19:35;5;5;
60645;PMS5003;46462;32.608;-117.032;2023-08-20T16:22:05;4;4;
60645;PMS5003;46462;32.608;-117.032;2023-08-20T16:24:36;3;3;
60645;PMS5003;46462;32.608;-117.032;2023-08-20T16:27:06;4;4;
60645;PMS5003;46462;32.608;-117.032;2023-08-20T16:29:37;3;3;
60645;PMS5003;46462;32.608;-117.032;2023-08-20T16:32:07;4;4;
60645;PMS5003;46462;32.608;-117.032;2023-08-20T16:34:38;4;4;
60645;PMS5003;46462;32.608;-117.032;2023-08-20T16:37:09;3;3;
60645;PMS5003;46462;32.608;-117.032;2023-08-20T16:39:39;5;4;